createdAt,value
2022-08-17T00:00:53.338Z,24
2022-08-17T00:03:30.829Z,23
2022-08-17T00:06:03.680Z,24
2022-08-17T00:08:36.780Z,25
2022-08-17T00:11:09.403Z,20
2022-08-17T00:13:42.148Z,24
2022-08-17T00:16:14.267Z,21
2022-08-17T00:19:09.108Z,24
2022-08-17T00:22:37.104Z,24
2022-08-17T00:25:08.150Z,24
2022-08-17T00:27:40.598Z,20
2022-08-17T00:30:13.383Z,23
2022-08-17T00:33:17.274Z,24
2022-08-17T00:35:50.062Z,23
2022-08-17T00:38:22.440Z,20
2022-08-17T00:40:59.987Z,28
2022-08-17T00:43:31.308Z,21
2022-08-17T00:46:04.417Z,24
2022-08-17T00:48:38.161Z,24
2022-08-17T00:51:10.492Z,24
2022-08-17T00:53:43.076Z,20
2022-08-17T00:56:15.870Z,24
2022-08-17T00:58:48.773Z,23
2022-08-17T01:01:22.707Z,20
2022-08-17T01:04:00.660Z,23
2022-08-17T01:06:32.545Z,20
2022-08-17T01:09:05.786Z,20
2022-08-17T01:11:38.685Z,22
2022-08-17T01:14:11.400Z,20
2022-08-17T01:16:44.248Z,20
2022-08-17T01:19:17.275Z,23
2022-08-17T01:21:50.178Z,24
2022-08-17T01:24:23.216Z,21
2022-08-17T01:27:00.096Z,25
2022-08-17T01:29:33.533Z,25
2022-08-17T01:32:06.048Z,21
2022-08-17T01:34:50.952Z,24
2022-08-17T01:37:23.082Z,20
2022-08-17T01:39:55.067Z,24
2022-08-17T01:42:27.773Z,23
2022-08-17T01:45:00.803Z,27
2022-08-17T01:47:36.477Z,23
2022-08-17T01:50:08.893Z,20
2022-08-17T01:52:41.576Z,15
2022-08-17T01:55:15.152Z,23
2022-08-17T01:57:48.419Z,20
2022-08-17T02:00:21.314Z,17
2022-08-17T02:02:54.197Z,20
2022-08-17T02:05:27.159Z,16
2022-08-17T02:08:02.729Z,25
2022-08-17T02:10:47.477Z,24
2022-08-17T02:13:19.236Z,20
2022-08-17T02:15:51.567Z,24
2022-08-17T02:18:24.365Z,24
2022-08-17T02:20:57.283Z,24
2022-08-17T02:23:29.917Z,21
2022-08-17T02:26:02.914Z,25
2022-08-17T02:28:35.174Z,21
2022-08-17T02:31:08.543Z,19
2022-08-17T02:33:44.377Z,20
2022-08-17T02:36:36.011Z,17
2022-08-17T02:39:08.204Z,19
2022-08-17T02:41:41.243Z,20
2022-08-17T02:44:40.759Z,20
2022-08-17T02:47:11.653Z,20
2022-08-17T02:49:56.394Z,20
2022-08-17T02:52:44.710Z,20
2022-08-17T02:55:36.025Z,24
2022-08-17T02:58:09.137Z,20
2022-08-17T03:00:42.666Z,19
2022-08-17T03:03:15.546Z,20
2022-08-17T03:05:48.253Z,24
2022-08-17T03:08:21.319Z,16
2022-08-17T03:10:53.635Z,17
2022-08-17T03:13:27.056Z,18
2022-08-17T03:16:00.282Z,21
2022-08-17T03:18:32.577Z,20
2022-08-17T03:21:05.297Z,21
2022-08-17T03:23:38.757Z,20
2022-08-17T03:26:16.529Z,20
2022-08-17T03:28:49.994Z,24
2022-08-17T03:31:23.005Z,23
2022-08-17T03:33:54.619Z,20
2022-08-17T03:36:27.678Z,20
2022-08-17T03:39:00.457Z,19
2022-08-17T03:41:33.833Z,21
2022-08-17T03:44:06.109Z,18
2022-08-17T03:46:39.234Z,24
2022-08-17T03:49:12.427Z,16
2022-08-17T03:51:44.219Z,21
2022-08-17T03:54:17.153Z,17
2022-08-17T03:56:50.328Z,19
2022-08-17T03:59:26.420Z,21
2022-08-17T04:01:59.982Z,16
2022-08-17T04:04:32.754Z,15
2022-08-17T04:07:05.453Z,16
2022-08-17T04:09:38.950Z,25
2022-08-17T04:12:11.902Z,19
2022-08-17T04:14:55.445Z,19
2022-08-17T04:17:26.006Z,17
2022-08-17T04:19:59.682Z,17
2022-08-17T04:22:50.806Z,24
2022-08-17T04:25:27.360Z,19
2022-08-17T04:28:00.271Z,20
2022-08-17T04:30:46.936Z,20
2022-08-17T04:33:19.727Z,24
2022-08-17T04:35:52.626Z,20
2022-08-17T04:38:26.000Z,20
2022-08-17T04:40:59.416Z,17
2022-08-17T04:43:32.032Z,25
2022-08-17T04:46:05.542Z,32
2022-08-17T04:48:38.736Z,24
2022-08-17T04:51:11.865Z,25
2022-08-17T04:53:43.959Z,23
2022-08-17T04:56:19.710Z,21
2022-08-17T04:58:52.213Z,19
2022-08-17T05:01:25.608Z,24
2022-08-17T05:04:35.635Z,21
2022-08-17T05:07:06.300Z,20
2022-08-17T05:09:39.244Z,23
2022-08-17T05:12:11.978Z,19
2022-08-17T05:14:44.673Z,20
2022-08-17T05:17:17.535Z,19
2022-08-17T05:19:52.876Z,21
2022-08-17T05:22:25.092Z,20
2022-08-17T05:24:58.608Z,20
2022-08-17T05:27:37.000Z,25
2022-08-17T05:30:13.639Z,24
2022-08-17T05:32:47.622Z,27
2022-08-17T05:35:20.879Z,20
2022-08-17T05:37:58.670Z,20
2022-08-17T05:40:34.114Z,16
2022-08-17T05:43:05.226Z,19
2022-08-17T05:45:57.043Z,12
2022-08-17T05:48:41.020Z,19
2022-08-17T05:51:12.994Z,16
2022-08-17T05:53:46.007Z,20
2022-08-17T05:56:31.167Z,13
2022-08-17T05:59:03.768Z,16
2022-08-17T06:01:37.797Z,14
2022-08-17T06:04:12.837Z,19
2022-08-17T06:06:46.026Z,12
2022-08-17T06:09:34.036Z,12
2022-08-17T06:12:19.720Z,16
2022-08-17T06:14:52.290Z,16
2022-08-17T06:17:24.963Z,20
2022-08-17T06:19:58.902Z,18
2022-08-17T06:22:31.591Z,23
2022-08-17T06:25:11.171Z,41
2022-08-17T06:27:43.295Z,16
2022-08-17T06:30:16.373Z,15
2022-08-17T06:32:50.128Z,14
2022-08-17T06:35:25.940Z,25
2022-08-17T06:38:05.483Z,28
2022-08-17T06:40:38.627Z,24
2022-08-17T06:43:14.565Z,20
2022-08-17T06:45:47.355Z,40
2022-08-17T06:48:20.964Z,35
2022-08-17T06:50:54.203Z,31
2022-08-17T06:53:26.781Z,13
2022-08-17T06:55:59.695Z,24
2022-08-17T06:58:33.324Z,21
2022-08-17T07:01:08.009Z,20
2022-08-17T07:03:40.433Z,20
2022-08-17T07:06:13.515Z,17
2022-08-17T07:08:46.445Z,20
2022-08-17T07:11:19.548Z,21
2022-08-17T07:13:52.729Z,24
2022-08-17T07:16:25.678Z,20
2022-08-17T07:18:59.625Z,23
2022-08-17T07:21:31.931Z,22
2022-08-17T07:24:04.339Z,24
2022-08-17T07:26:37.509Z,20
2022-08-17T07:29:10.840Z,18
2022-08-17T07:31:43.291Z,21
2022-08-17T07:34:16.033Z,17
2022-08-17T07:36:49.808Z,20
2022-08-17T07:39:21.036Z,20
2022-08-17T07:42:00.243Z,16
2022-08-17T07:44:31.959Z,19
2022-08-17T07:47:06.834Z,23
2022-08-17T07:49:38.090Z,21
2022-08-17T07:52:52.907Z,18
2022-08-17T07:55:24.553Z,16
2022-08-17T07:57:57.593Z,18
2022-08-17T08:00:33.401Z,19
2022-08-17T08:03:07.092Z,27
2022-08-17T08:05:51.304Z,17
2022-08-17T08:08:23.653Z,20
2022-08-17T08:10:56.730Z,16
2022-08-17T08:13:29.822Z,16
2022-08-17T08:16:04.030Z,20
2022-08-17T08:18:58.206Z,17
2022-08-17T08:21:28.772Z,16
2022-08-17T08:24:01.703Z,20
2022-08-17T08:26:34.542Z,19
2022-08-17T08:29:07.125Z,16
2022-08-17T08:31:42.853Z,20
2022-08-17T08:35:04.159Z,20
2022-08-17T08:37:43.654Z,16
2022-08-17T08:40:14.798Z,15
2022-08-17T08:42:47.601Z,17
2022-08-17T08:45:20.622Z,20
2022-08-17T08:47:54.022Z,19
2022-08-17T08:50:39.045Z,16
2022-08-17T08:53:10.062Z,16
2022-08-17T08:55:46.553Z,14
2022-08-17T08:58:43.091Z,22
2022-08-17T09:01:17.905Z,15
2022-08-17T09:03:54.193Z,19
2022-08-17T09:06:40.404Z,12
2022-08-17T09:09:11.772Z,19
2022-08-17T09:12:04.603Z,12
2022-08-17T09:14:47.755Z,16
2022-08-17T09:17:18.941Z,16
2022-08-17T09:19:51.585Z,20
2022-08-17T09:22:24.790Z,10
2022-08-17T09:24:57.695Z,16
2022-08-17T09:27:30.571Z,16
2022-08-17T09:30:03.494Z,15
2022-08-17T09:32:35.999Z,16
2022-08-17T09:35:09.965Z,12
2022-08-17T09:37:42.114Z,15
2022-08-17T09:40:15.383Z,19
2022-08-17T09:42:48.117Z,17
2022-08-17T09:45:21.177Z,15
2022-08-17T09:47:54.055Z,19
2022-08-17T09:51:07.297Z,15
2022-08-17T09:53:37.840Z,13
2022-08-17T09:56:10.402Z,14
2022-08-17T09:58:43.795Z,12
2022-08-17T10:01:16.648Z,16
2022-08-17T10:03:49.180Z,16
2022-08-17T10:06:22.764Z,15
2022-08-17T10:08:55.039Z,13
2022-08-17T10:11:34.300Z,17
2022-08-17T10:14:44.669Z,15
2022-08-17T10:17:26.690Z,12
2022-08-17T10:19:59.410Z,19
2022-08-17T10:22:38.478Z,12
2022-08-17T10:25:33.428Z,12
2022-08-17T10:28:30.833Z,16
2022-08-17T10:31:36.053Z,23
2022-08-17T10:34:06.701Z,13
2022-08-17T10:36:39.452Z,15
2022-08-17T10:39:12.452Z,18
2022-08-17T10:41:45.676Z,15
2022-08-17T10:44:41.789Z,15
2022-08-17T10:47:12.794Z,12
2022-08-17T10:49:45.580Z,15
2022-08-17T10:52:18.207Z,17
2022-08-17T10:54:58.987Z,19
2022-08-17T10:57:30.325Z,19
2022-08-17T11:00:03.026Z,17
2022-08-17T11:02:36.372Z,15
2022-08-17T11:05:08.672Z,12
2022-08-17T11:07:41.443Z,12
2022-08-17T11:10:14.128Z,16
2022-08-17T11:12:46.688Z,12
2022-08-17T11:15:20.769Z,23
2022-08-17T11:17:53.075Z,17
2022-08-17T11:20:25.945Z,17
2022-08-17T11:22:58.791Z,17
2022-08-17T11:25:31.479Z,16
2022-08-17T11:28:04.187Z,13
2022-08-17T11:30:37.071Z,17
2022-08-17T11:33:12.981Z,20
2022-08-17T11:35:44.596Z,17
2022-08-17T11:38:17.623Z,20
2022-08-17T11:40:50.128Z,15
2022-08-17T11:43:25.976Z,23
2022-08-17T11:46:00.326Z,12
2022-08-17T11:48:34.597Z,19
2022-08-17T11:51:07.929Z,16
2022-08-17T11:53:40.550Z,16
2022-08-17T11:56:13.023Z,13
2022-08-17T11:58:45.607Z,15
2022-08-17T12:01:17.838Z,12
2022-08-17T12:03:56.361Z,16
2022-08-17T12:06:34.375Z,22
2022-08-17T12:09:05.531Z,13
2022-08-17T12:12:14.945Z,25
2022-08-17T12:15:12.527Z,12
2022-08-17T12:17:43.442Z,16
2022-08-17T12:20:15.556Z,32
2022-08-17T12:22:47.636Z,11
2022-08-17T12:25:20.510Z,11
2022-08-17T12:28:08.407Z,12
2022-08-17T12:30:41.683Z,16
2022-08-17T12:33:29.500Z,15
2022-08-17T12:36:01.171Z,14
2022-08-17T12:38:34.227Z,12
2022-08-17T12:41:08.410Z,11
2022-08-17T12:43:40.873Z,11
2022-08-17T12:46:16.139Z,10
2022-08-17T12:49:00.546Z,15
2022-08-17T12:51:31.854Z,13
2022-08-17T12:54:04.775Z,11
2022-08-17T12:56:37.912Z,12
2022-08-17T12:59:14.491Z,18
2022-08-17T13:02:03.857Z,15
2022-08-17T13:04:35.909Z,12
2022-08-17T13:07:08.443Z,13
2022-08-17T13:09:41.529Z,12
2022-08-17T13:12:13.867Z,15
2022-08-17T13:14:45.567Z,15
2022-08-17T13:17:17.867Z,17
2022-08-17T13:19:50.283Z,13
2022-08-17T13:22:27.351Z,8
2022-08-17T13:25:00.818Z,16
2022-08-17T13:27:32.545Z,16
2022-08-17T13:30:04.767Z,12
2022-08-17T13:32:36.902Z,16
2022-08-17T13:35:40.443Z,19
2022-08-17T13:38:22.060Z,20
2022-08-17T13:40:54.691Z,19
2022-08-17T13:43:27.688Z,17
2022-08-17T13:46:01.168Z,19
2022-08-17T13:48:34.193Z,12
2022-08-17T13:51:05.103Z,20
2022-08-17T13:53:40.644Z,17
2022-08-17T13:56:40.318Z,28
2022-08-17T13:59:10.854Z,15
2022-08-17T14:01:43.925Z,15
2022-08-17T14:04:27.710Z,16
2022-08-17T14:07:00.891Z,15
2022-08-17T14:09:37.960Z,14
2022-08-17T14:12:09.056Z,23
2022-08-17T14:14:42.472Z,13
2022-08-17T14:17:14.831Z,20
2022-08-17T14:19:47.514Z,20
2022-08-17T14:22:22.709Z,17
2022-08-17T14:24:54.386Z,21
2022-08-17T14:27:27.503Z,14
2022-08-17T14:30:01.006Z,15
2022-08-17T14:32:33.612Z,16
2022-08-17T14:35:07.039Z,20
2022-08-17T14:37:39.923Z,16
2022-08-17T14:40:13.042Z,12
2022-08-17T14:42:46.755Z,17
2022-08-17T14:45:34.093Z,16
2022-08-17T14:48:05.672Z,16
2022-08-17T14:50:38.291Z,19
2022-08-17T14:53:11.673Z,11
2022-08-17T14:55:48.951Z,16
2022-08-17T14:58:20.899Z,13
2022-08-17T15:00:54.162Z,16
2022-08-17T15:03:26.891Z,15
2022-08-17T15:06:00.021Z,16
2022-08-17T15:08:32.606Z,16
2022-08-17T15:11:14.545Z,17
2022-08-17T15:13:53.650Z,16
2022-08-17T15:16:24.769Z,12
2022-08-17T15:18:57.456Z,12
2022-08-17T15:21:30.576Z,17
2022-08-17T15:24:03.249Z,13
2022-08-17T15:26:35.966Z,16
2022-08-17T15:29:08.938Z,16
2022-08-17T15:31:41.990Z,16
2022-08-17T15:34:15.694Z,16
2022-08-17T15:36:50.010Z,9
2022-08-17T15:39:21.877Z,17
2022-08-17T15:41:59.239Z,17
2022-08-17T15:44:35.544Z,17
2022-08-17T15:47:06.902Z,16
2022-08-17T15:49:40.832Z,20
2022-08-17T15:52:14.015Z,18
2022-08-17T15:54:47.032Z,20
2022-08-17T15:57:19.814Z,16
2022-08-17T15:59:59.274Z,16
2022-08-17T16:04:23.570Z,17
2022-08-17T16:07:01.957Z,20
2022-08-17T16:09:34.579Z,17
2022-08-17T16:12:07.628Z,19
2022-08-17T16:14:40.666Z,17
2022-08-17T16:17:41.254Z,16
2022-08-17T16:20:24.253Z,16
2022-08-17T16:22:55.965Z,19
2022-08-17T16:25:54.770Z,16
2022-08-17T16:28:36.859Z,16
2022-08-17T16:31:09.910Z,20
2022-08-17T16:33:41.864Z,16
2022-08-17T16:36:56.882Z,16
2022-08-17T16:39:28.502Z,20
2022-08-17T16:42:01.444Z,21
2022-08-17T16:44:36.018Z,17
2022-08-17T16:47:08.905Z,19
2022-08-17T16:49:41.266Z,21
2022-08-17T16:52:14.209Z,15
2022-08-17T16:55:03.912Z,16
2022-08-17T16:57:51.040Z,21
2022-08-17T17:00:22.275Z,22
2022-08-17T17:02:55.131Z,16
2022-08-17T17:05:28.095Z,20
2022-08-17T17:08:01.065Z,12
2022-08-17T17:10:33.557Z,16
2022-08-17T17:13:12.411Z,15
2022-08-17T17:15:45.510Z,20
2022-08-17T17:18:18.959Z,17
2022-08-17T17:20:51.792Z,17
2022-08-17T17:23:24.401Z,15
2022-08-17T17:25:56.833Z,18
2022-08-17T17:28:30.106Z,21
2022-08-17T17:31:02.734Z,20
2022-08-17T17:33:36.549Z,16
2022-08-17T17:36:08.341Z,20
2022-08-17T17:38:41.327Z,20
2022-08-17T17:41:13.875Z,20
2022-08-17T17:43:47.167Z,19
2022-08-17T17:46:29.535Z,18
2022-08-17T17:49:00.777Z,16
2022-08-17T17:52:19.525Z,20
2022-08-17T17:54:50.829Z,18
2022-08-17T17:57:23.561Z,21
2022-08-17T17:59:56.503Z,19
2022-08-17T18:02:28.694Z,20
2022-08-17T18:05:01.765Z,23
2022-08-17T18:07:35.279Z,25
2022-08-17T18:10:31.721Z,17
2022-08-17T18:13:03.845Z,14
2022-08-17T18:15:36.327Z,16
2022-08-17T18:18:09.200Z,19
2022-08-17T18:20:56.473Z,21
2022-08-17T18:23:29.304Z,16
2022-08-17T18:26:01.885Z,20
2022-08-17T18:28:34.592Z,20
2022-08-17T18:31:07.229Z,20
2022-08-17T18:33:43.688Z,27
2022-08-17T18:36:15.907Z,25
2022-08-17T18:38:50.114Z,31
2022-08-17T18:41:23.033Z,28
2022-08-17T18:43:58.675Z,31
2022-08-17T18:46:30.882Z,25
2022-08-17T18:49:03.680Z,24
2022-08-17T18:51:43.668Z,22
2022-08-17T18:54:15.031Z,23
2022-08-17T18:56:47.969Z,21
2022-08-17T18:59:20.763Z,23
2022-08-17T19:02:07.507Z,35
2022-08-17T19:05:15.103Z,29
2022-08-17T19:07:47.335Z,24
2022-08-17T19:10:22.268Z,20
2022-08-17T19:13:01.307Z,25
2022-08-17T19:16:16.184Z,29
2022-08-17T19:18:47.425Z,34
2022-08-17T19:21:18.341Z,35
2022-08-17T19:23:54.927Z,27
2022-08-17T19:26:57.632Z,28
2022-08-17T19:29:28.334Z,31
2022-08-17T19:32:01.185Z,21
2022-08-17T19:34:35.038Z,25
2022-08-17T19:37:07.350Z,20
2022-08-17T19:39:40.289Z,32
2022-08-17T19:42:13.132Z,38
2022-08-17T19:44:47.509Z,30
2022-08-17T19:47:57.151Z,24
2022-08-17T19:50:34.385Z,26
2022-08-17T19:53:07.099Z,23
2022-08-17T19:55:48.544Z,25
2022-08-17T19:58:25.559Z,21
2022-08-17T20:00:57.969Z,31
2022-08-17T20:03:30.821Z,32
2022-08-17T20:06:15.395Z,28
2022-08-17T20:08:46.213Z,33
2022-08-17T20:11:18.572Z,32
2022-08-17T20:13:51.782Z,32
2022-08-17T20:16:24.448Z,28
2022-08-17T20:18:57.971Z,32
2022-08-17T20:21:37.566Z,27
2022-08-17T20:24:11.004Z,28
2022-08-17T20:26:59.810Z,28
2022-08-17T20:29:41.048Z,34
2022-08-17T20:32:12.630Z,32
2022-08-17T20:34:46.241Z,21
2022-08-17T20:37:18.807Z,32
2022-08-17T20:39:51.758Z,23
2022-08-17T20:42:24.690Z,31
2022-08-17T20:44:57.912Z,30
2022-08-17T20:47:30.642Z,31
2022-08-17T20:50:03.721Z,29
2022-08-17T20:52:36.658Z,31
2022-08-17T20:55:09.834Z,30
2022-08-17T20:57:42.211Z,26
2022-08-17T21:00:15.465Z,26
2022-08-17T21:02:48.285Z,25
2022-08-17T21:05:21.932Z,32
2022-08-17T21:08:05.389Z,28
2022-08-17T21:10:40.459Z,28
2022-08-17T21:13:15.382Z,32
2022-08-17T21:15:48.497Z,29
2022-08-17T21:18:24.393Z,29
2022-08-17T21:20:58.308Z,30
2022-08-17T21:23:31.848Z,27
2022-08-17T21:26:03.991Z,35
2022-08-17T21:29:33.073Z,30
2022-08-17T21:32:18.980Z,35
2022-08-17T21:34:55.828Z,24
2022-08-17T21:37:28.627Z,27
2022-08-17T21:40:01.921Z,41
2022-08-17T21:42:35.008Z,29
2022-08-17T21:45:06.314Z,30
2022-08-17T21:47:38.862Z,38
2022-08-17T21:50:12.049Z,32
2022-08-17T21:52:45.626Z,30
2022-08-17T21:55:21.306Z,22
2022-08-17T21:58:15.992Z,32
2022-08-17T22:00:48.364Z,27
2022-08-17T22:03:21.646Z,29
2022-08-17T22:05:54.054Z,25
2022-08-17T22:08:28.750Z,24
2022-08-17T22:11:02.662Z,25
2022-08-17T22:13:35.785Z,35
2022-08-17T22:16:29.887Z,40
2022-08-17T22:19:01.316Z,29
2022-08-17T22:21:35.428Z,29
2022-08-17T22:24:08.189Z,37
2022-08-17T22:26:41.342Z,31
2022-08-17T22:29:13.511Z,36
2022-08-17T22:31:46.958Z,20
2022-08-17T22:34:19.566Z,27
2022-08-17T22:36:53.914Z,26
2022-08-17T22:39:26.696Z,31
2022-08-17T22:41:59.790Z,29
2022-08-17T22:44:33.034Z,22
2022-08-17T22:47:11.784Z,22
2022-08-17T22:49:54.919Z,22
2022-08-17T22:52:33.236Z,20
2022-08-17T22:55:10.462Z,23
2022-08-17T22:57:42.397Z,21
2022-08-17T23:00:15.587Z,24
2022-08-17T23:02:56.205Z,20
2022-08-17T23:05:28.555Z,20
2022-08-17T23:08:01.550Z,24
2022-08-17T23:10:34.253Z,19
2022-08-17T23:13:07.115Z,23
2022-08-17T23:15:40.045Z,23
2022-08-17T23:18:12.685Z,22
2022-08-17T23:20:44.730Z,28
2022-08-17T23:23:24.487Z,23
2022-08-17T23:25:56.492Z,16
2022-08-17T23:28:29.322Z,19
2022-08-17T23:31:03.835Z,22
2022-08-17T23:33:35.922Z,23
2022-08-17T23:36:08.473Z,22
2022-08-17T23:38:40.937Z,20
2022-08-17T23:41:13.949Z,23
2022-08-17T23:43:46.998Z,19
2022-08-17T23:46:20.181Z,24
2022-08-17T23:48:54.560Z,20
2022-08-17T23:51:28.201Z,17
2022-08-17T23:54:08.669Z,25
2022-08-17T23:56:40.377Z,22
2022-08-17T23:59:14.094Z,20
